createdAt,value
2023-05-14T00:01:17.551Z,10.80
2023-05-14T00:03:45.605Z,10.77
2023-05-14T00:06:13.828Z,15.20
2023-05-14T00:08:41.406Z,10.27
2023-05-14T00:11:09.924Z,13.52
2023-05-14T00:13:37.659Z,10.77
2023-05-14T00:16:05.688Z,10.05
2023-05-14T00:18:33.504Z,10.38
2023-05-14T00:21:00.802Z,11.35
2023-05-14T00:23:28.560Z,9.13
2023-05-14T00:25:56.705Z,10.18
2023-05-14T00:28:24.399Z,9.73
2023-05-14T00:30:52.256Z,9.25
2023-05-14T00:33:19.767Z,9.52
2023-05-14T00:35:47.591Z,10.00
2023-05-14T00:38:23.432Z,10.48
2023-05-14T00:40:51.858Z,12.18
2023-05-14T00:43:23.105Z,11.25
2023-05-14T00:45:54.764Z,11.00
2023-05-14T00:48:23.582Z,9.27
2023-05-14T00:50:51.799Z,10.07
2023-05-14T00:53:21.000Z,10.57
2023-05-14T00:55:50.384Z,9.43
2023-05-14T00:58:19.457Z,9.50
2023-05-14T01:00:46.844Z,8.73
2023-05-14T01:03:14.591Z,9.93
2023-05-14T01:06:01.588Z,10.38
2023-05-14T01:09:25.673Z,8.63
2023-05-14T01:12:04.040Z,7.80
2023-05-14T01:14:46.309Z,8.00
2023-05-14T01:17:20.090Z,8.07
2023-05-14T01:19:49.359Z,7.97
2023-05-14T01:22:17.085Z,8.02
2023-05-14T01:24:44.765Z,9.55
2023-05-14T01:27:56.182Z,8.95
2023-05-14T01:30:41.487Z,8.88
2023-05-14T01:33:18.098Z,7.47
2023-05-14T01:35:46.580Z,7.70
2023-05-14T01:38:24.576Z,8.40
2023-05-14T01:40:54.436Z,8.57
2023-05-14T01:43:23.026Z,8.77
2023-05-14T01:45:50.505Z,8.50
2023-05-14T01:48:19.041Z,8.07
2023-05-14T01:50:46.230Z,9.77
2023-05-14T01:53:14.817Z,8.48
2023-05-14T01:55:42.143Z,10.38
2023-05-14T01:58:10.544Z,8.63
2023-05-14T02:00:38.361Z,9.00
2023-05-14T02:03:06.543Z,8.73
2023-05-14T02:05:34.483Z,10.60
2023-05-14T02:08:01.670Z,8.85
2023-05-14T02:10:29.179Z,8.27
2023-05-14T02:12:56.708Z,7.43
2023-05-14T02:15:24.347Z,8.55
2023-05-14T02:17:51.690Z,9.15
2023-05-14T02:20:19.127Z,9.27
2023-05-14T02:22:47.369Z,9.43
2023-05-14T02:25:15.592Z,9.43
2023-05-14T02:27:43.069Z,10.60
2023-05-14T02:30:11.936Z,10.00
2023-05-14T02:32:40.242Z,12.73
2023-05-14T02:35:08.609Z,9.25
2023-05-14T02:37:35.985Z,9.63
2023-05-14T02:40:04.537Z,8.18
2023-05-14T02:42:32.978Z,11.27
2023-05-14T02:45:00.539Z,9.98
2023-05-14T02:47:27.878Z,9.35
2023-05-14T02:49:55.428Z,10.07
2023-05-14T02:52:22.708Z,10.90
2023-05-14T02:54:50.331Z,9.55
2023-05-14T02:57:17.644Z,11.90
2023-05-14T02:59:44.835Z,11.73
2023-05-14T03:02:14.572Z,9.40
2023-05-14T03:04:42.632Z,8.05
2023-05-14T03:07:10.624Z,11.75
2023-05-14T03:09:38.427Z,11.65
2023-05-14T03:12:08.389Z,12.60
2023-05-14T03:14:35.933Z,11.00
2023-05-14T03:17:04.130Z,11.30
2023-05-14T03:19:31.513Z,11.10
2023-05-14T03:21:59.268Z,11.88
2023-05-14T03:24:27.149Z,10.73
2023-05-14T03:26:54.974Z,11.55
2023-05-14T03:29:23.050Z,13.32
2023-05-14T03:31:50.664Z,12.77
2023-05-14T03:34:18.107Z,11.48
2023-05-14T03:36:45.490Z,12.55
2023-05-14T03:39:15.613Z,13.18
2023-05-14T03:41:43.050Z,11.68
2023-05-14T03:44:10.557Z,11.85
2023-05-14T03:46:38.130Z,10.27
2023-05-14T03:49:08.423Z,10.63
2023-05-14T03:51:35.928Z,12.77
2023-05-14T03:54:05.665Z,13.90
2023-05-14T03:56:34.033Z,9.88
2023-05-14T03:59:01.440Z,10.65
2023-05-14T04:01:28.818Z,9.70
2023-05-14T04:03:58.928Z,9.45
2023-05-14T04:06:27.536Z,9.77
2023-05-14T04:08:55.542Z,12.60
2023-05-14T04:11:23.138Z,10.75
2023-05-14T04:13:50.504Z,9.52
2023-05-14T04:16:17.818Z,9.63
2023-05-14T04:18:45.198Z,10.75
2023-05-14T04:21:12.540Z,9.57
2023-05-14T04:23:40.409Z,10.10
2023-05-14T04:26:07.976Z,9.52
2023-05-14T04:28:35.635Z,10.23
2023-05-14T04:31:03.838Z,12.25
2023-05-14T04:33:31.296Z,10.45
2023-05-14T04:35:58.644Z,10.65
2023-05-14T04:38:29.454Z,10.10
2023-05-14T04:40:56.993Z,9.27
2023-05-14T04:43:24.485Z,9.43
2023-05-14T04:45:52.493Z,10.05
2023-05-14T04:48:20.015Z,8.93
2023-05-14T04:50:47.268Z,8.52
2023-05-14T04:53:15.505Z,10.00
2023-05-14T04:55:42.716Z,11.30
2023-05-14T04:58:09.934Z,8.30
2023-05-14T05:00:37.489Z,8.43
2023-05-14T05:03:04.886Z,10.13
2023-05-14T05:05:32.099Z,8.63
2023-05-14T05:07:59.261Z,9.52
2023-05-14T05:10:26.926Z,9.65
2023-05-14T05:12:54.132Z,10.80
2023-05-14T05:15:21.650Z,9.73
2023-05-14T05:17:49.665Z,9.15
2023-05-14T05:20:17.221Z,11.35
2023-05-14T05:22:44.627Z,8.35
2023-05-14T05:25:12.916Z,10.88
2023-05-14T05:27:40.908Z,10.15
2023-05-14T05:30:09.446Z,10.20
2023-05-14T05:32:37.344Z,9.57
2023-05-14T05:35:05.193Z,10.60
2023-05-14T05:37:32.568Z,9.25
2023-05-14T05:39:59.960Z,9.63
2023-05-14T05:42:27.467Z,10.95
2023-05-14T05:44:54.968Z,10.10
2023-05-14T05:47:22.502Z,8.80
2023-05-14T05:49:49.999Z,8.55
2023-05-14T05:52:17.356Z,10.10
2023-05-14T05:54:45.729Z,9.63
2023-05-14T05:57:14.239Z,9.05
2023-05-14T05:59:41.500Z,9.48
2023-05-14T06:02:14.430Z,11.13
2023-05-14T06:04:42.269Z,9.18
2023-05-14T06:07:09.652Z,9.38
2023-05-14T06:09:36.941Z,8.77
2023-05-14T06:12:04.947Z,8.48
2023-05-14T06:14:32.158Z,12.10
2023-05-14T06:16:59.568Z,8.95
2023-05-14T06:19:26.891Z,9.25
2023-05-14T06:21:54.050Z,11.30
2023-05-14T06:24:21.217Z,10.23
2023-05-14T06:26:49.309Z,10.32
2023-05-14T06:29:17.349Z,10.75
2023-05-14T06:31:45.623Z,10.75
2023-05-14T06:34:12.989Z,10.30
2023-05-14T06:36:40.257Z,8.70
2023-05-14T06:39:08.428Z,8.88
2023-05-14T06:41:35.912Z,10.13
2023-05-14T06:44:03.684Z,9.10
2023-05-14T06:46:30.924Z,8.63
2023-05-14T06:48:59.592Z,10.40
2023-05-14T06:51:30.663Z,7.45
2023-05-14T06:53:58.059Z,9.27
2023-05-14T06:56:25.406Z,8.00
2023-05-14T06:58:52.621Z,7.70
2023-05-14T07:01:19.911Z,9.85
2023-05-14T07:03:48.363Z,8.50
2023-05-14T07:06:16.104Z,9.27
2023-05-14T07:08:47.374Z,8.25
2023-05-14T07:11:16.006Z,10.07
2023-05-14T07:13:43.555Z,8.77
2023-05-14T07:16:10.714Z,8.77
2023-05-14T07:18:38.243Z,7.60
2023-05-14T07:21:06.555Z,8.85
2023-05-14T07:23:38.421Z,7.82
2023-05-14T07:26:08.154Z,7.78
2023-05-14T07:28:35.823Z,9.70
2023-05-14T07:31:08.823Z,10.95
2023-05-14T07:33:36.969Z,8.45
2023-05-14T07:36:05.352Z,8.45
2023-05-14T07:38:33.129Z,8.98
2023-05-14T07:41:00.610Z,8.00
2023-05-14T07:43:27.900Z,7.85
2023-05-14T07:45:55.977Z,7.47
2023-05-14T07:48:23.950Z,9.48
2023-05-14T07:50:51.938Z,9.57
2023-05-14T07:53:19.278Z,11.20
2023-05-14T07:55:48.381Z,8.18
2023-05-14T07:58:16.375Z,7.90
2023-05-14T08:00:43.666Z,7.50
2023-05-14T08:03:11.392Z,8.63
2023-05-14T08:05:38.681Z,7.75
2023-05-14T08:08:06.729Z,8.73
2023-05-14T08:10:34.639Z,8.55
2023-05-14T08:13:02.023Z,7.40
2023-05-14T08:15:29.599Z,7.00
2023-05-14T08:17:58.857Z,7.07
2023-05-14T08:20:27.084Z,8.00
2023-05-14T08:22:55.716Z,6.63
2023-05-14T08:25:28.516Z,7.50
2023-05-14T08:27:56.082Z,7.90
2023-05-14T08:30:24.072Z,7.57
2023-05-14T08:32:52.845Z,6.93
2023-05-14T08:35:20.542Z,10.60
2023-05-14T08:37:49.690Z,7.13
2023-05-14T08:40:18.853Z,7.07
2023-05-14T08:42:48.495Z,6.63
2023-05-14T08:45:25.753Z,8.15
2023-05-14T08:47:53.865Z,7.78
2023-05-14T08:50:23.337Z,6.47
2023-05-14T08:52:52.101Z,9.65
2023-05-14T08:55:20.328Z,9.18
2023-05-14T08:57:47.551Z,7.97
2023-05-14T09:00:20.595Z,9.30
2023-05-14T09:02:49.365Z,8.32
2023-05-14T09:05:19.335Z,8.75
2023-05-14T09:07:47.214Z,11.20
2023-05-14T09:10:18.734Z,10.40
2023-05-14T09:14:27.405Z,9.68
2023-05-14T09:16:55.563Z,9.02
2023-05-14T09:19:23.276Z,9.13
2023-05-14T09:21:51.582Z,9.55
2023-05-14T09:24:30.978Z,8.57
2023-05-14T09:26:58.969Z,8.32
2023-05-14T09:29:31.214Z,9.20
2023-05-14T09:32:04.978Z,8.25
2023-05-14T09:34:37.323Z,8.15
2023-05-14T09:37:09.532Z,7.70
2023-05-14T09:39:38.658Z,7.32
2023-05-14T09:42:06.458Z,7.90
2023-05-14T09:44:33.797Z,8.07
2023-05-14T09:47:01.142Z,6.53
2023-05-14T09:49:28.424Z,6.63
2023-05-14T09:51:57.933Z,6.97
2023-05-14T09:54:27.657Z,7.68
2023-05-14T09:56:55.908Z,7.80
2023-05-14T09:59:23.393Z,7.50
2023-05-14T10:01:52.695Z,8.45
2023-05-14T10:04:22.406Z,10.70
2023-05-14T10:06:53.408Z,9.75
2023-05-14T10:09:26.472Z,7.55
2023-05-14T10:12:01.499Z,7.40
2023-05-14T10:14:46.994Z,9.30
2023-05-14T10:17:18.709Z,9.07
2023-05-14T10:19:59.066Z,8.32
2023-05-14T10:22:34.998Z,6.15
2023-05-14T10:25:05.065Z,7.22
2023-05-14T10:27:33.774Z,6.70
2023-05-14T10:30:06.264Z,9.15
2023-05-14T10:32:37.829Z,7.82
2023-05-14T10:35:22.975Z,6.65
2023-05-14T10:37:52.183Z,5.60
2023-05-14T10:40:24.545Z,6.25
2023-05-14T10:42:53.457Z,5.57
2023-05-14T10:45:23.240Z,5.28
2023-05-14T10:47:50.761Z,5.75
2023-05-14T10:50:18.735Z,5.75
2023-05-14T10:52:46.924Z,7.85
2023-05-14T10:55:17.288Z,5.65
2023-05-14T10:57:46.884Z,13.60
2023-05-14T11:00:20.941Z,5.20
2023-05-14T11:02:48.689Z,6.28
2023-05-14T11:05:17.921Z,6.10
2023-05-14T11:07:50.321Z,6.40
2023-05-14T11:10:26.077Z,6.15
2023-05-14T11:12:57.324Z,5.32
2023-05-14T11:15:27.952Z,5.32
2023-05-14T11:17:55.634Z,5.30
2023-05-14T11:20:23.287Z,8.63
2023-05-14T11:22:55.426Z,6.50
2023-05-14T11:25:29.053Z,4.63
2023-05-14T11:27:58.943Z,4.68
2023-05-14T11:30:26.778Z,4.43
2023-05-14T11:32:56.123Z,5.60
2023-05-14T11:35:24.085Z,7.15
2023-05-14T11:37:52.893Z,6.63
2023-05-14T11:40:20.995Z,5.57
2023-05-14T11:42:53.429Z,6.30
2023-05-14T11:45:29.927Z,5.15
2023-05-14T11:47:57.699Z,4.25
2023-05-14T11:50:25.753Z,5.80
2023-05-14T11:52:57.696Z,6.03
2023-05-14T11:55:25.366Z,6.45
2023-05-14T11:57:52.863Z,4.30
2023-05-14T12:00:22.231Z,4.38
2023-05-14T12:02:50.491Z,5.70
2023-05-14T12:05:18.919Z,4.78
2023-05-14T12:07:48.045Z,6.40
2023-05-14T12:10:17.671Z,5.03
2023-05-14T12:12:49.008Z,4.10
2023-05-14T12:15:17.364Z,4.30
2023-05-14T12:19:06.684Z,4.85
2023-05-14T12:22:50.171Z,4.45
2023-05-14T12:26:32.726Z,4.93
2023-05-14T12:30:21.900Z,4.60
2023-05-14T12:34:05.168Z,4.53
2023-05-14T12:37:48.054Z,4.68
2023-05-14T12:41:31.591Z,4.82
2023-05-14T12:44:00.530Z,4.57
2023-05-14T12:47:43.651Z,4.93
2023-05-14T12:51:26.363Z,4.70
2023-05-14T12:53:54.252Z,5.00
2023-05-14T12:57:36.593Z,4.20
2023-05-14T13:00:08.214Z,5.53
2023-05-14T13:02:43.185Z,4.85
2023-05-14T13:05:12.698Z,4.20
2023-05-14T13:08:56.775Z,4.15
2023-05-14T13:12:39.503Z,4.20
2023-05-14T13:15:07.955Z,5.80
2023-05-14T13:17:36.365Z,6.15
2023-05-14T13:20:04.819Z,4.65
2023-05-14T13:22:32.025Z,5.65
2023-05-14T13:24:59.230Z,4.55
2023-05-14T13:27:26.536Z,4.28
2023-05-14T13:29:54.015Z,5.63
2023-05-14T13:32:21.647Z,4.38
2023-05-14T13:34:49.138Z,4.43
2023-05-14T13:37:16.716Z,4.93
2023-05-14T13:39:45.060Z,4.43
2023-05-14T13:42:12.834Z,4.45
2023-05-14T13:44:40.385Z,3.90
2023-05-14T13:47:07.847Z,5.25
2023-05-14T13:49:35.521Z,3.67
2023-05-14T13:52:03.760Z,5.25
2023-05-14T13:54:31.346Z,4.30
2023-05-14T13:56:58.539Z,3.53
2023-05-14T13:59:25.827Z,3.90
2023-05-14T14:01:53.263Z,6.15
2023-05-14T14:04:21.079Z,3.75
2023-05-14T14:06:49.248Z,4.60
2023-05-14T14:09:17.106Z,4.53
2023-05-14T14:11:45.106Z,3.90
2023-05-14T14:14:13.246Z,3.83
2023-05-14T14:16:40.829Z,4.20
2023-05-14T14:19:10.821Z,4.68
2023-05-14T14:21:45.412Z,3.85
2023-05-14T14:24:14.787Z,4.00
2023-05-14T14:26:42.452Z,3.67
2023-05-14T14:29:10.655Z,3.70
2023-05-14T14:31:38.421Z,3.63
2023-05-14T14:34:06.188Z,3.88
2023-05-14T14:36:33.608Z,5.68
2023-05-14T14:39:05.896Z,4.85
2023-05-14T14:41:33.461Z,4.20
2023-05-14T14:44:02.745Z,4.25
2023-05-14T14:46:30.049Z,4.68
2023-05-14T14:48:58.002Z,4.20
2023-05-14T14:51:25.635Z,4.65
2023-05-14T14:53:52.953Z,4.00
2023-05-14T14:56:20.186Z,5.20
2023-05-14T14:58:47.658Z,4.40
2023-05-14T15:01:15.099Z,5.93
2023-05-14T15:03:43.339Z,5.05
2023-05-14T15:06:12.461Z,4.15
2023-05-14T15:08:40.406Z,5.93
2023-05-14T15:11:09.183Z,4.65
2023-05-14T15:13:36.843Z,4.75
2023-05-14T15:16:04.144Z,3.80
2023-05-14T15:18:31.370Z,3.90
2023-05-14T15:20:58.949Z,4.45
2023-05-14T15:23:26.551Z,6.53
2023-05-14T15:25:54.058Z,4.30
2023-05-14T15:28:21.981Z,4.20
2023-05-14T15:30:49.891Z,5.68
2023-05-14T15:33:19.266Z,4.50
2023-05-14T15:35:46.921Z,6.28
2023-05-14T15:38:14.152Z,4.32
2023-05-14T15:40:42.093Z,5.88
2023-05-14T15:43:09.713Z,4.07
2023-05-14T15:45:37.612Z,4.18
2023-05-14T15:48:05.119Z,5.40
2023-05-14T15:50:32.767Z,4.38
2023-05-14T15:53:00.964Z,4.63
2023-05-14T15:55:28.312Z,4.22
2023-05-14T15:57:56.058Z,4.20
2023-05-14T16:00:24.879Z,4.22
2023-05-14T16:02:53.045Z,4.25
2023-05-14T16:05:20.896Z,5.05
2023-05-14T16:07:48.824Z,5.50
2023-05-14T16:10:21.510Z,5.03
2023-05-14T16:12:49.128Z,5.50
2023-05-14T16:15:16.977Z,6.88
2023-05-14T16:17:44.730Z,4.22
2023-05-14T16:20:12.691Z,4.25
2023-05-14T16:22:40.555Z,4.72
2023-05-14T16:25:08.745Z,7.55
2023-05-14T16:27:36.639Z,4.68
2023-05-14T16:30:05.375Z,3.72
2023-05-14T16:32:33.729Z,4.55
2023-05-14T16:35:02.494Z,3.95
2023-05-14T16:37:31.587Z,5.05
2023-05-14T16:39:59.335Z,4.25
2023-05-14T16:42:26.691Z,5.25
2023-05-14T16:44:54.130Z,5.55
2023-05-14T16:47:21.460Z,5.82
2023-05-14T16:49:48.990Z,4.68
2023-05-14T16:52:16.668Z,4.85
2023-05-14T16:54:43.904Z,4.82
2023-05-14T16:57:11.258Z,5.80
2023-05-14T16:59:38.518Z,5.57
2023-05-14T17:02:06.263Z,4.28
2023-05-14T17:04:38.678Z,4.57
2023-05-14T17:07:07.390Z,5.82
2023-05-14T17:09:35.587Z,4.82
2023-05-14T17:12:03.434Z,4.15
2023-05-14T17:14:31.588Z,4.85
2023-05-14T17:16:58.911Z,5.43
2023-05-14T17:19:26.095Z,4.20
2023-05-14T17:21:53.681Z,3.92
2023-05-14T17:24:21.558Z,5.10
2023-05-14T17:26:49.388Z,3.45
2023-05-14T17:29:17.766Z,3.42
2023-05-14T17:31:45.314Z,4.25
2023-05-14T17:34:12.770Z,3.60
2023-05-14T17:36:40.021Z,4.07
2023-05-14T17:39:07.642Z,5.00
2023-05-14T17:41:35.256Z,3.90
2023-05-14T17:44:02.511Z,6.55
2023-05-14T17:46:30.542Z,3.85
2023-05-14T17:48:58.521Z,4.00
2023-05-14T17:51:26.070Z,4.38
2023-05-14T17:53:53.536Z,5.80
2023-05-14T17:56:20.900Z,4.78
2023-05-14T17:58:49.910Z,4.55
2023-05-14T18:01:18.037Z,4.63
2023-05-14T18:03:46.126Z,4.32
2023-05-14T18:06:13.740Z,4.28
2023-05-14T18:08:42.697Z,4.20
2023-05-14T18:11:10.844Z,4.22
2023-05-14T18:13:38.399Z,5.35
2023-05-14T18:16:05.991Z,4.72
2023-05-14T18:18:33.441Z,4.13
2023-05-14T18:21:00.954Z,5.10
2023-05-14T18:23:28.885Z,5.05
2023-05-14T18:25:57.249Z,6.30
2023-05-14T18:28:25.342Z,6.35
2023-05-14T18:30:53.391Z,8.23
2023-05-14T18:33:21.238Z,7.05
2023-05-14T18:35:48.618Z,7.70
2023-05-14T18:38:17.865Z,6.03
2023-05-14T18:40:46.687Z,6.22
2023-05-14T18:43:15.066Z,6.88
2023-05-14T18:45:43.279Z,6.75
2023-05-14T18:48:10.777Z,7.25
2023-05-14T18:50:39.487Z,6.55
2023-05-14T18:53:07.614Z,7.63
2023-05-14T18:55:38.146Z,6.45
2023-05-14T18:58:05.646Z,6.22
2023-05-14T19:00:33.060Z,5.35
2023-05-14T19:03:00.826Z,7.10
2023-05-14T19:05:28.576Z,5.05
2023-05-14T19:08:02.095Z,5.32
2023-05-14T19:10:30.077Z,5.70
2023-05-14T19:12:57.694Z,5.80
2023-05-14T19:15:25.532Z,4.65
2023-05-14T19:17:54.166Z,4.90
2023-05-14T19:20:21.576Z,5.53
2023-05-14T19:22:49.343Z,4.97
2023-05-14T19:25:20.246Z,5.40
2023-05-14T19:27:51.082Z,5.88
2023-05-14T19:30:21.258Z,7.38
2023-05-14T19:32:48.587Z,9.85
2023-05-14T19:35:16.485Z,7.88
2023-05-14T19:37:44.096Z,6.53
2023-05-14T19:40:12.224Z,5.88
2023-05-14T19:42:39.777Z,6.25
2023-05-14T19:45:08.187Z,8.02
2023-05-14T19:47:35.461Z,9.05
2023-05-14T19:50:02.978Z,7.70
2023-05-14T19:52:31.934Z,5.88
2023-05-14T19:54:59.262Z,6.78
2023-05-14T19:57:26.760Z,7.85
2023-05-14T19:59:54.133Z,6.43
2023-05-14T20:02:22.265Z,7.07
2023-05-14T20:04:49.908Z,7.90
2023-05-14T20:07:17.867Z,7.40
2023-05-14T20:09:46.341Z,7.22
2023-05-14T20:12:14.538Z,7.68
2023-05-14T20:14:41.968Z,7.28
2023-05-14T20:17:09.829Z,7.65
2023-05-14T20:19:37.188Z,8.55
2023-05-14T20:22:04.695Z,7.78
2023-05-14T20:24:32.437Z,8.10
2023-05-14T20:27:00.253Z,7.65
2023-05-14T20:29:28.033Z,8.75
2023-05-14T20:31:55.780Z,8.55
2023-05-14T20:34:26.325Z,8.35
2023-05-14T20:36:53.565Z,12.52
2023-05-14T20:39:21.476Z,6.75
2023-05-14T20:41:48.999Z,7.18
2023-05-14T20:44:16.789Z,7.03
2023-05-14T20:46:45.211Z,7.82
2023-05-14T20:49:12.824Z,9.43
2023-05-14T20:51:40.580Z,9.25
2023-05-14T20:54:07.971Z,9.85
2023-05-14T20:56:38.162Z,9.07
2023-05-14T20:59:05.751Z,7.75
2023-05-14T21:01:33.150Z,7.13
2023-05-14T21:04:01.527Z,8.55
2023-05-14T21:06:29.658Z,9.30
2023-05-14T21:08:58.053Z,8.38
2023-05-14T21:11:26.197Z,7.20
2023-05-14T21:13:53.803Z,7.05
2023-05-14T21:16:21.168Z,8.80
2023-05-14T21:18:48.497Z,6.65
2023-05-14T21:21:15.785Z,8.43
2023-05-14T21:23:43.303Z,7.25
2023-05-14T21:26:11.484Z,8.95
2023-05-14T21:28:39.014Z,7.60
2023-05-14T21:31:06.351Z,8.40
2023-05-14T21:33:33.691Z,6.22
2023-05-14T21:36:01.776Z,9.27
2023-05-14T21:38:29.095Z,7.38
2023-05-14T21:40:56.379Z,8.40
2023-05-14T21:43:24.061Z,9.23
2023-05-14T21:45:51.386Z,7.00
2023-05-14T21:48:18.712Z,8.10
2023-05-14T21:50:46.036Z,8.35
2023-05-14T21:53:13.534Z,7.05
2023-05-14T21:55:41.676Z,7.20
2023-05-14T21:58:09.008Z,9.05
2023-05-14T22:00:36.179Z,8.70
2023-05-14T22:03:03.770Z,9.82
2023-05-14T22:05:31.582Z,9.85
2023-05-14T22:08:01.992Z,8.73
2023-05-14T22:10:31.390Z,9.02
2023-05-14T22:12:59.048Z,7.88
2023-05-14T22:15:26.664Z,9.10
2023-05-14T22:17:54.210Z,9.57
2023-05-14T22:20:22.428Z,7.80
2023-05-14T22:22:50.122Z,7.85
2023-05-14T22:25:21.392Z,11.32
2023-05-14T22:27:49.015Z,8.63
2023-05-14T22:30:16.722Z,8.63
2023-05-14T22:32:44.253Z,8.85
2023-05-14T22:35:11.677Z,8.48
2023-05-14T22:37:38.825Z,8.32
2023-05-14T22:40:09.217Z,10.25
2023-05-14T22:42:37.517Z,9.77
2023-05-14T22:45:05.397Z,10.20
2023-05-14T22:47:32.634Z,8.50
2023-05-14T22:50:00.188Z,8.82
2023-05-14T22:53:43.386Z,9.63
2023-05-14T22:57:26.093Z,7.88
2023-05-14T23:01:09.047Z,10.07
2023-05-14T23:04:51.853Z,9.10
2023-05-14T23:08:34.839Z,9.00
2023-05-14T23:11:02.994Z,10.63
2023-05-14T23:14:46.189Z,10.25
2023-05-14T23:17:14.090Z,9.45
2023-05-14T23:20:57.591Z,10.02
2023-05-14T23:24:40.710Z,11.70
2023-05-14T23:27:08.296Z,10.23
2023-05-14T23:30:51.006Z,9.13
2023-05-14T23:34:34.900Z,11.48
2023-05-14T23:37:02.749Z,10.55
2023-05-14T23:40:45.864Z,9.85
2023-05-14T23:44:28.655Z,12.77
2023-05-14T23:46:56.236Z,12.57
2023-05-14T23:50:03.709Z,10.63
2023-05-14T23:52:31.653Z,11.43
2023-05-14T23:54:59.148Z,10.90
2023-05-14T23:57:27.192Z,10.45
2023-05-14T23:59:54.500Z,9.98
